sensor_id;sensor_type;location;lat;lon;timestamp;P1;durP1;ratioP1;P2;durP2;ratioP2
47715;SDS011;33476;50.984;3.538;2022-08-19T00:00:09;34.83;;;21.80;;
47715;SDS011;33476;50.984;3.538;2022-08-19T00:02:39;35.72;;;21.95;;
47715;SDS011;33476;50.984;3.538;2022-08-19T00:05:06;32.25;;;20.45;;
47715;SDS011;33476;50.984;3.538;2022-08-19T00:07:33;28.10;;;19.83;;
47715;SDS011;33476;50.984;3.538;2022-08-19T00:09:58;30.65;;;19.77;;
47715;SDS011;33476;50.984;3.538;2022-08-19T00:12:24;28.20;;;18.48;;
47715;SDS011;33476;50.984;3.538;2022-08-19T00:14:49;26.73;;;17.58;;
47715;SDS011;33476;50.984;3.538;2022-08-19T00:17:14;27.80;;;18.00;;
47715;SDS011;33476;50.984;3.538;2022-08-19T00:19:40;29.10;;;17.58;;
47715;SDS011;33476;50.984;3.538;2022-08-19T00:22:05;25.80;;;17.80;;
47715;SDS011;33476;50.984;3.538;2022-08-19T00:24:33;27.83;;;17.42;;
47715;SDS011;33476;50.984;3.538;2022-08-19T00:26:59;28.85;;;16.98;;
47715;SDS011;33476;50.984;3.538;2022-08-19T00:29:26;25.42;;;16.92;;
47715;SDS011;33476;50.984;3.538;2022-08-19T00:31:53;27.55;;;17.05;;
47715;SDS011;33476;50.984;3.538;2022-08-19T00:34:20;31.73;;;16.80;;
47715;SDS011;33476;50.984;3.538;2022-08-19T00:36:46;24.95;;;16.70;;
47715;SDS011;33476;50.984;3.538;2022-08-19T00:39:12;29.13;;;16.52;;
47715;SDS011;33476;50.984;3.538;2022-08-19T00:41:38;27.13;;;16.63;;
47715;SDS011;33476;50.984;3.538;2022-08-19T00:44:09;27.73;;;16.73;;
47715;SDS011;33476;50.984;3.538;2022-08-19T00:46:39;25.80;;;16.38;;
47715;SDS011;33476;50.984;3.538;2022-08-19T00:49:15;25.80;;;16.27;;
47715;SDS011;33476;50.984;3.538;2022-08-19T00:51:45;25.88;;;15.60;;
47715;SDS011;33476;50.984;3.538;2022-08-19T00:54:13;21.83;;;15.23;;
47715;SDS011;33476;50.984;3.538;2022-08-19T00:56:40;24.95;;;15.60;;
47715;SDS011;33476;50.984;3.538;2022-08-19T00:59:07;26.55;;;15.38;;
47715;SDS011;33476;50.984;3.538;2022-08-19T01:01:34;22.10;;;14.45;;
47715;SDS011;33476;50.984;3.538;2022-08-19T01:04:02;25.55;;;15.75;;
47715;SDS011;33476;50.984;3.538;2022-08-19T01:06:28;24.80;;;14.35;;
47715;SDS011;33476;50.984;3.538;2022-08-19T01:08:54;25.77;;;13.75;;
47715;SDS011;33476;50.984;3.538;2022-08-19T01:11:20;22.45;;;14.27;;
47715;SDS011;33476;50.984;3.538;2022-08-19T01:13:46;21.33;;;13.20;;
47715;SDS011;33476;50.984;3.538;2022-08-19T01:16:12;26.88;;;13.65;;
47715;SDS011;33476;50.984;3.538;2022-08-19T01:18:40;23.10;;;13.73;;
47715;SDS011;33476;50.984;3.538;2022-08-19T01:21:11;26.38;;;14.25;;
47715;SDS011;33476;50.984;3.538;2022-08-19T01:23:43;24.98;;;12.75;;
47715;SDS011;33476;50.984;3.538;2022-08-19T01:26:11;21.23;;;12.20;;
47715;SDS011;33476;50.984;3.538;2022-08-19T01:28:42;24.65;;;12.77;;
47715;SDS011;33476;50.984;3.538;2022-08-19T01:31:10;20.83;;;12.07;;
47715;SDS011;33476;50.984;3.538;2022-08-19T01:33:40;22.50;;;12.50;;
47715;SDS011;33476;50.984;3.538;2022-08-19T01:36:07;22.52;;;12.80;;
47715;SDS011;33476;50.984;3.538;2022-08-19T01:38:38;21.25;;;12.70;;
47715;SDS011;33476;50.984;3.538;2022-08-19T01:41:08;25.95;;;11.88;;
47715;SDS011;33476;50.984;3.538;2022-08-19T01:43:35;20.75;;;12.20;;
47715;SDS011;33476;50.984;3.538;2022-08-19T01:46:01;19.05;;;11.55;;
47715;SDS011;33476;50.984;3.538;2022-08-19T01:48:28;17.33;;;10.55;;
47715;SDS011;33476;50.984;3.538;2022-08-19T01:50:58;21.83;;;11.57;;
47715;SDS011;33476;50.984;3.538;2022-08-19T01:53:24;23.85;;;11.35;;
47715;SDS011;33476;50.984;3.538;2022-08-19T01:55:49;24.67;;;12.30;;
47715;SDS011;33476;50.984;3.538;2022-08-19T01:58:16;23.48;;;12.15;;
47715;SDS011;33476;50.984;3.538;2022-08-19T02:00:46;18.58;;;11.13;;
47715;SDS011;33476;50.984;3.538;2022-08-19T02:03:12;20.95;;;11.50;;
47715;SDS011;33476;50.984;3.538;2022-08-19T02:05:39;18.90;;;10.63;;
47715;SDS011;33476;50.984;3.538;2022-08-19T02:08:06;21.50;;;11.77;;
47715;SDS011;33476;50.984;3.538;2022-08-19T02:10:32;20.45;;;11.05;;
47715;SDS011;33476;50.984;3.538;2022-08-19T02:12:58;18.13;;;11.40;;
47715;SDS011;33476;50.984;3.538;2022-08-19T02:15:23;19.98;;;10.77;;
47715;SDS011;33476;50.984;3.538;2022-08-19T02:17:50;19.80;;;10.77;;
47715;SDS011;33476;50.984;3.538;2022-08-19T02:20:16;17.40;;;10.23;;
47715;SDS011;33476;50.984;3.538;2022-08-19T02:22:42;18.33;;;9.40;;
47715;SDS011;33476;50.984;3.538;2022-08-19T02:25:09;21.70;;;10.85;;
47715;SDS011;33476;50.984;3.538;2022-08-19T02:27:36;23.33;;;10.55;;
47715;SDS011;33476;50.984;3.538;2022-08-19T02:30:04;16.65;;;10.52;;
47715;SDS011;33476;50.984;3.538;2022-08-19T02:32:31;19.13;;;10.40;;
47715;SDS011;33476;50.984;3.538;2022-08-19T02:34:57;19.90;;;11.32;;
47715;SDS011;33476;50.984;3.538;2022-08-19T02:37:22;20.65;;;11.98;;
47715;SDS011;33476;50.984;3.538;2022-08-19T02:40:07;17.33;;;11.18;;
47715;SDS011;33476;50.984;3.538;2022-08-19T02:42:32;20.58;;;11.32;;
47715;SDS011;33476;50.984;3.538;2022-08-19T02:44:58;19.60;;;12.05;;
47715;SDS011;33476;50.984;3.538;2022-08-19T02:47:23;19.13;;;10.98;;
47715;SDS011;33476;50.984;3.538;2022-08-19T02:49:48;21.38;;;11.27;;
47715;SDS011;33476;50.984;3.538;2022-08-19T02:52:16;23.40;;;12.77;;
47715;SDS011;33476;50.984;3.538;2022-08-19T02:54:42;16.67;;;10.43;;
47715;SDS011;33476;50.984;3.538;2022-08-19T02:57:07;20.80;;;10.93;;
47715;SDS011;33476;50.984;3.538;2022-08-19T02:59:33;17.60;;;10.98;;
47715;SDS011;33476;50.984;3.538;2022-08-19T03:01:58;20.00;;;10.98;;
47715;SDS011;33476;50.984;3.538;2022-08-19T03:04:24;19.73;;;10.73;;
47715;SDS011;33476;50.984;3.538;2022-08-19T03:06:49;20.02;;;10.98;;
47715;SDS011;33476;50.984;3.538;2022-08-19T03:09:16;17.25;;;10.57;;
47715;SDS011;33476;50.984;3.538;2022-08-19T03:11:43;20.15;;;10.85;;
47715;SDS011;33476;50.984;3.538;2022-08-19T03:14:09;19.08;;;10.57;;
47715;SDS011;33476;50.984;3.538;2022-08-19T03:16:40;18.58;;;10.02;;
47715;SDS011;33476;50.984;3.538;2022-08-19T03:19:10;21.60;;;10.40;;
47715;SDS011;33476;50.984;3.538;2022-08-19T03:21:36;19.98;;;9.80;;
47715;SDS011;33476;50.984;3.538;2022-08-19T03:24:03;16.98;;;9.82;;
47715;SDS011;33476;50.984;3.538;2022-08-19T03:26:31;17.25;;;9.88;;
47715;SDS011;33476;50.984;3.538;2022-08-19T03:28:56;17.30;;;9.60;;
47715;SDS011;33476;50.984;3.538;2022-08-19T03:31:22;17.60;;;9.32;;
47715;SDS011;33476;50.984;3.538;2022-08-19T03:33:48;14.95;;;9.18;;
47715;SDS011;33476;50.984;3.538;2022-08-19T03:36:19;13.48;;;9.35;;
47715;SDS011;33476;50.984;3.538;2022-08-19T03:38:48;20.73;;;10.27;;
47715;SDS011;33476;50.984;3.538;2022-08-19T03:41:26;16.30;;;9.43;;
47715;SDS011;33476;50.984;3.538;2022-08-19T03:43:55;15.57;;;9.38;;
47715;SDS011;33476;50.984;3.538;2022-08-19T03:46:23;15.40;;;9.68;;
47715;SDS011;33476;50.984;3.538;2022-08-19T03:48:51;16.63;;;9.07;;
47715;SDS011;33476;50.984;3.538;2022-08-19T03:51:32;15.35;;;8.85;;
47715;SDS011;33476;50.984;3.538;2022-08-19T03:54:00;17.60;;;9.15;;
47715;SDS011;33476;50.984;3.538;2022-08-19T03:56:28;14.52;;;8.43;;
47715;SDS011;33476;50.984;3.538;2022-08-19T03:58:57;13.32;;;8.60;;
47715;SDS011;33476;50.984;3.538;2022-08-19T04:01:25;17.17;;;9.10;;
47715;SDS011;33476;50.984;3.538;2022-08-19T04:03:52;15.65;;;8.10;;
47715;SDS011;33476;50.984;3.538;2022-08-19T04:06:22;15.75;;;8.35;;
47715;SDS011;33476;50.984;3.538;2022-08-19T04:08:51;13.85;;;8.63;;
47715;SDS011;33476;50.984;3.538;2022-08-19T04:11:20;22.10;;;9.15;;
47715;SDS011;33476;50.984;3.538;2022-08-19T04:13:48;14.27;;;8.02;;
47715;SDS011;33476;50.984;3.538;2022-08-19T04:16:16;15.05;;;7.35;;
47715;SDS011;33476;50.984;3.538;2022-08-19T04:18:42;18.25;;;7.88;;
47715;SDS011;33476;50.984;3.538;2022-08-19T04:21:08;14.75;;;7.10;;
47715;SDS011;33476;50.984;3.538;2022-08-19T04:23:41;12.52;;;6.93;;
47715;SDS011;33476;50.984;3.538;2022-08-19T04:26:07;14.38;;;7.25;;
47715;SDS011;33476;50.984;3.538;2022-08-19T04:28:36;13.05;;;7.22;;
47715;SDS011;33476;50.984;3.538;2022-08-19T04:31:02;13.57;;;7.45;;
47715;SDS011;33476;50.984;3.538;2022-08-19T04:33:27;10.32;;;6.93;;
47715;SDS011;33476;50.984;3.538;2022-08-19T04:35:53;13.90;;;7.20;;
47715;SDS011;33476;50.984;3.538;2022-08-19T04:38:19;10.55;;;6.90;;
47715;SDS011;33476;50.984;3.538;2022-08-19T04:40:48;12.73;;;7.45;;
47715;SDS011;33476;50.984;3.538;2022-08-19T04:43:35;10.45;;;6.25;;
47715;SDS011;33476;50.984;3.538;2022-08-19T04:46:06;10.63;;;6.80;;
47715;SDS011;33476;50.984;3.538;2022-08-19T04:48:36;15.75;;;7.43;;
47715;SDS011;33476;50.984;3.538;2022-08-19T04:51:05;13.30;;;6.72;;
47715;SDS011;33476;50.984;3.538;2022-08-19T04:53:33;11.85;;;6.90;;
47715;SDS011;33476;50.984;3.538;2022-08-19T04:56:03;13.43;;;7.22;;
47715;SDS011;33476;50.984;3.538;2022-08-19T04:58:31;11.88;;;6.93;;
47715;SDS011;33476;50.984;3.538;2022-08-19T05:00:57;11.50;;;6.70;;
47715;SDS011;33476;50.984;3.538;2022-08-19T05:03:24;13.65;;;6.50;;
47715;SDS011;33476;50.984;3.538;2022-08-19T05:05:51;12.80;;;7.35;;
47715;SDS011;33476;50.984;3.538;2022-08-19T05:08:17;15.10;;;6.25;;
47715;SDS011;33476;50.984;3.538;2022-08-19T05:10:45;17.63;;;6.93;;
47715;SDS011;33476;50.984;3.538;2022-08-19T05:13:14;10.50;;;5.85;;
47715;SDS011;33476;50.984;3.538;2022-08-19T05:15:41;16.40;;;6.80;;
47715;SDS011;33476;50.984;3.538;2022-08-19T05:18:07;15.18;;;7.50;;
47715;SDS011;33476;50.984;3.538;2022-08-19T05:20:51;12.38;;;5.90;;
47715;SDS011;33476;50.984;3.538;2022-08-19T05:23:37;15.35;;;7.05;;
47715;SDS011;33476;50.984;3.538;2022-08-19T05:26:02;15.63;;;7.55;;
47715;SDS011;33476;50.984;3.538;2022-08-19T05:28:28;19.90;;;7.07;;
47715;SDS011;33476;50.984;3.538;2022-08-19T05:30:54;15.52;;;6.75;;
47715;SDS011;33476;50.984;3.538;2022-08-19T05:33:20;13.43;;;7.18;;
47715;SDS011;33476;50.984;3.538;2022-08-19T05:35:46;10.50;;;6.60;;
47715;SDS011;33476;50.984;3.538;2022-08-19T05:38:13;18.60;;;7.55;;
47715;SDS011;33476;50.984;3.538;2022-08-19T05:40:39;11.45;;;6.60;;
47715;SDS011;33476;50.984;3.538;2022-08-19T05:43:05;16.02;;;7.22;;
47715;SDS011;33476;50.984;3.538;2022-08-19T05:45:32;12.88;;;6.38;;
47715;SDS011;33476;50.984;3.538;2022-08-19T05:48:02;11.45;;;6.90;;
47715;SDS011;33476;50.984;3.538;2022-08-19T05:50:28;16.90;;;6.35;;
47715;SDS011;33476;50.984;3.538;2022-08-19T05:52:53;13.18;;;6.72;;
47715;SDS011;33476;50.984;3.538;2022-08-19T05:55:18;9.93;;;6.35;;
47715;SDS011;33476;50.984;3.538;2022-08-19T05:57:45;13.80;;;6.40;;
47715;SDS011;33476;50.984;3.538;2022-08-19T06:00:11;18.58;;;6.05;;
47715;SDS011;33476;50.984;3.538;2022-08-19T06:02:38;11.80;;;6.30;;
47715;SDS011;33476;50.984;3.538;2022-08-19T06:05:04;10.05;;;6.10;;
47715;SDS011;33476;50.984;3.538;2022-08-19T06:07:33;13.23;;;6.03;;
47715;SDS011;33476;50.984;3.538;2022-08-19T06:10:00;15.30;;;5.93;;
47715;SDS011;33476;50.984;3.538;2022-08-19T06:12:25;12.55;;;5.85;;
47715;SDS011;33476;50.984;3.538;2022-08-19T06:14:54;9.95;;;5.63;;
47715;SDS011;33476;50.984;3.538;2022-08-19T06:17:19;13.13;;;5.85;;
47715;SDS011;33476;50.984;3.538;2022-08-19T06:19:46;12.43;;;6.15;;
47715;SDS011;33476;50.984;3.538;2022-08-19T06:22:11;20.33;;;5.95;;
47715;SDS011;33476;50.984;3.538;2022-08-19T06:24:38;14.55;;;6.40;;
47715;SDS011;33476;50.984;3.538;2022-08-19T06:27:03;15.32;;;5.97;;
47715;SDS011;33476;50.984;3.538;2022-08-19T06:29:30;15.52;;;5.50;;
47715;SDS011;33476;50.984;3.538;2022-08-19T06:31:58;10.70;;;5.07;;
47715;SDS011;33476;50.984;3.538;2022-08-19T06:34:25;10.85;;;4.63;;
47715;SDS011;33476;50.984;3.538;2022-08-19T06:36:53;13.27;;;5.15;;
47715;SDS011;33476;50.984;3.538;2022-08-19T06:39:23;10.32;;;5.07;;
47715;SDS011;33476;50.984;3.538;2022-08-19T06:41:51;13.73;;;5.03;;
47715;SDS011;33476;50.984;3.538;2022-08-19T06:44:19;13.35;;;5.50;;
47715;SDS011;33476;50.984;3.538;2022-08-19T06:46:46;12.40;;;5.50;;
47715;SDS011;33476;50.984;3.538;2022-08-19T06:49:12;13.13;;;4.80;;
47715;SDS011;33476;50.984;3.538;2022-08-19T06:51:42;12.50;;;4.95;;
47715;SDS011;33476;50.984;3.538;2022-08-19T06:56:35;9.65;;;5.13;;
47715;SDS011;33476;50.984;3.538;2022-08-19T06:59:06;10.13;;;5.55;;
47715;SDS011;33476;50.984;3.538;2022-08-19T07:01:36;10.77;;;5.38;;
47715;SDS011;33476;50.984;3.538;2022-08-19T07:04:03;9.30;;;5.57;;
47715;SDS011;33476;50.984;3.538;2022-08-19T07:06:30;10.63;;;5.95;;
47715;SDS011;33476;50.984;3.538;2022-08-19T07:08:56;9.80;;;5.18;;
47715;SDS011;33476;50.984;3.538;2022-08-19T07:11:23;9.85;;;5.47;;
47715;SDS011;33476;50.984;3.538;2022-08-19T07:13:48;12.73;;;5.93;;
47715;SDS011;33476;50.984;3.538;2022-08-19T07:16:15;12.50;;;5.82;;
47715;SDS011;33476;50.984;3.538;2022-08-19T07:18:42;9.98;;;5.90;;
47715;SDS011;33476;50.984;3.538;2022-08-19T07:21:10;9.45;;;4.85;;
47715;SDS011;33476;50.984;3.538;2022-08-19T07:23:39;8.35;;;5.53;;
47715;SDS011;33476;50.984;3.538;2022-08-19T07:26:06;14.25;;;5.82;;
47715;SDS011;33476;50.984;3.538;2022-08-19T07:52:06;8.88;;;5.95;;
47715;SDS011;33476;50.984;3.538;2022-08-19T07:54:34;9.00;;;5.28;;
47715;SDS011;33476;50.984;3.538;2022-08-19T07:57:01;12.68;;;6.30;;
47715;SDS011;33476;50.984;3.538;2022-08-19T07:59:28;13.05;;;5.95;;
47715;SDS011;33476;50.984;3.538;2022-08-19T08:01:54;14.27;;;6.40;;
47715;SDS011;33476;50.984;3.538;2022-08-19T08:04:20;9.30;;;6.03;;
47715;SDS011;33476;50.984;3.538;2022-08-19T08:07:05;9.40;;;6.10;;
47715;SDS011;33476;50.984;3.538;2022-08-19T08:09:50;8.88;;;6.85;;
47715;SDS011;33476;50.984;3.538;2022-08-19T08:12:17;10.27;;;6.40;;
47715;SDS011;33476;50.984;3.538;2022-08-19T08:14:49;8.82;;;6.85;;
47715;SDS011;33476;50.984;3.538;2022-08-19T08:17:18;11.43;;;7.03;;
47715;SDS011;33476;50.984;3.538;2022-08-19T08:19:45;11.30;;;7.30;;
47715;SDS011;33476;50.984;3.538;2022-08-19T08:22:14;10.00;;;6.88;;
47715;SDS011;33476;50.984;3.538;2022-08-19T08:27:40;9.55;;;6.78;;
47715;SDS011;33476;50.984;3.538;2022-08-19T08:30:08;12.52;;;7.18;;
47715;SDS011;33476;50.984;3.538;2022-08-19T08:32:37;10.07;;;5.88;;
47715;SDS011;33476;50.984;3.538;2022-08-19T08:35:07;8.15;;;5.93;;
47715;SDS011;33476;50.984;3.538;2022-08-19T08:37:34;15.43;;;6.43;;
47715;SDS011;33476;50.984;3.538;2022-08-19T08:40:19;10.93;;;7.20;;
47715;SDS011;33476;50.984;3.538;2022-08-19T08:43:37;9.75;;;6.85;;
47715;SDS011;33476;50.984;3.538;2022-08-19T08:45:44;10.18;;;6.13;;
47715;SDS011;33476;50.984;3.538;2022-08-19T08:48:35;7.10;;;4.90;;
47715;SDS011;33476;50.984;3.538;2022-08-19T08:51:09;5.50;;;3.97;;
47715;SDS011;33476;50.984;3.538;2022-08-19T08:53:38;4.57;;;3.33;;
47715;SDS011;33476;50.984;3.538;2022-08-19T08:56:07;4.63;;;2.88;;
47715;SDS011;33476;50.984;3.538;2022-08-19T08:58:42;5.55;;;2.92;;
47715;SDS011;33476;50.984;3.538;2022-08-19T09:01:46;7.50;;;2.22;;
47715;SDS011;33476;50.984;3.538;2022-08-19T09:04:12;5.13;;;2.20;;
47715;SDS011;33476;50.984;3.538;2022-08-19T09:06:50;6.95;;;1.90;;
47715;SDS011;33476;50.984;3.538;2022-08-19T09:09:32;5.75;;;2.60;;
47715;SDS011;33476;50.984;3.538;2022-08-19T09:17:23;3.78;;;2.47;;
47715;SDS011;33476;50.984;3.538;2022-08-19T09:20:37;5.10;;;2.70;;
47715;SDS011;33476;50.984;3.538;2022-08-19T09:22:45;4.10;;;2.13;;
47715;SDS011;33476;50.984;3.538;2022-08-19T09:25:12;6.57;;;2.35;;
47715;SDS011;33476;50.984;3.538;2022-08-19T09:27:40;4.97;;;1.95;;
47715;SDS011;33476;50.984;3.538;2022-08-19T09:30:07;1.92;;;1.40;;
47715;SDS011;33476;50.984;3.538;2022-08-19T09:32:36;3.17;;;1.48;;
47715;SDS011;33476;50.984;3.538;2022-08-19T09:35:02;2.03;;;1.38;;
47715;SDS011;33476;50.984;3.538;2022-08-19T09:37:27;5.13;;;1.48;;
47715;SDS011;33476;50.984;3.538;2022-08-19T09:39:53;5.28;;;1.25;;
47715;SDS011;33476;50.984;3.538;2022-08-19T09:42:18;2.10;;;1.35;;
47715;SDS011;33476;50.984;3.538;2022-08-19T09:44:45;4.28;;;1.55;;
47715;SDS011;33476;50.984;3.538;2022-08-19T09:47:12;2.97;;;2.03;;
47715;SDS011;33476;50.984;3.538;2022-08-19T09:49:38;5.65;;;2.15;;
47715;SDS011;33476;50.984;3.538;2022-08-19T09:52:05;5.03;;;2.60;;
47715;SDS011;33476;50.984;3.538;2022-08-19T09:54:33;5.20;;;2.72;;
47715;SDS011;33476;50.984;3.538;2022-08-19T09:56:59;3.88;;;3.30;;
47715;SDS011;33476;50.984;3.538;2022-08-19T09:59:26;4.28;;;3.10;;
47715;SDS011;33476;50.984;3.538;2022-08-19T10:01:51;5.00;;;2.95;;
47715;SDS011;33476;50.984;3.538;2022-08-19T10:04:17;4.55;;;2.85;;
47715;SDS011;33476;50.984;3.538;2022-08-19T10:06:43;3.88;;;2.65;;
47715;SDS011;33476;50.984;3.538;2022-08-19T10:09:09;6.07;;;3.17;;
47715;SDS011;33476;50.984;3.538;2022-08-19T10:11:36;6.55;;;2.80;;
47715;SDS011;33476;50.984;3.538;2022-08-19T10:14:04;3.63;;;2.80;;
47715;SDS011;33476;50.984;3.538;2022-08-19T10:16:30;4.30;;;2.58;;
47715;SDS011;33476;50.984;3.538;2022-08-19T10:18:57;4.50;;;3.13;;
47715;SDS011;33476;50.984;3.538;2022-08-19T10:21:24;9.88;;;2.55;;
47715;SDS011;33476;50.984;3.538;2022-08-19T10:23:54;3.97;;;3.30;;
47715;SDS011;33476;50.984;3.538;2022-08-19T10:26:23;15.07;;;3.15;;
47715;SDS011;33476;50.984;3.538;2022-08-19T10:28:50;4.90;;;2.47;;
47715;SDS011;33476;50.984;3.538;2022-08-19T10:31:18;5.57;;;1.92;;
47715;SDS011;33476;50.984;3.538;2022-08-19T10:33:45;6.20;;;2.00;;
47715;SDS011;33476;50.984;3.538;2022-08-19T10:36:14;1.70;;;1.20;;
47715;SDS011;33476;50.984;3.538;2022-08-19T10:38:43;2.45;;;1.55;;
47715;SDS011;33476;50.984;3.538;2022-08-19T10:41:16;8.70;;;1.55;;
47715;SDS011;33476;50.984;3.538;2022-08-19T10:43:43;19.85;;;2.38;;
47715;SDS011;33476;50.984;3.538;2022-08-19T10:46:10;2.35;;;0.82;;
47715;SDS011;33476;50.984;3.538;2022-08-19T10:48:39;6.07;;;0.80;;
47715;SDS011;33476;50.984;3.538;2022-08-19T10:51:05;2.38;;;0.75;;
47715;SDS011;33476;50.984;3.538;2022-08-19T10:53:50;3.05;;;0.60;;
47715;SDS011;33476;50.984;3.538;2022-08-19T10:56:16;1.73;;;0.60;;
47715;SDS011;33476;50.984;3.538;2022-08-19T10:59:00;8.85;;;0.45;;
47715;SDS011;33476;50.984;3.538;2022-08-19T11:01:28;12.52;;;0.52;;
47715;SDS011;33476;50.984;3.538;2022-08-19T11:03:55;6.38;;;0.52;;
47715;SDS011;33476;50.984;3.538;2022-08-19T11:06:22;3.03;;;0.30;;
47715;SDS011;33476;50.984;3.538;2022-08-19T11:08:50;40.63;;;2.33;;
47715;SDS011;33476;50.984;3.538;2022-08-19T11:11:15;6.93;;;0.30;;
47715;SDS011;33476;50.984;3.538;2022-08-19T11:13:41;2.60;;;1.13;;
47715;SDS011;33476;50.984;3.538;2022-08-19T11:16:12;3.67;;;1.30;;
47715;SDS011;33476;50.984;3.538;2022-08-19T11:18:46;2.22;;;1.60;;
47715;SDS011;33476;50.984;3.538;2022-08-19T11:21:14;4.38;;;1.90;;
47715;SDS011;33476;50.984;3.538;2022-08-19T11:23:43;12.90;;;2.50;;
47715;SDS011;33476;50.984;3.538;2022-08-19T11:26:10;6.47;;;2.20;;
47715;SDS011;33476;50.984;3.538;2022-08-19T11:28:35;4.78;;;1.80;;
47715;SDS011;33476;50.984;3.538;2022-08-19T11:31:01;2.58;;;1.92;;
47715;SDS011;33476;50.984;3.538;2022-08-19T11:33:28;2.78;;;1.73;;
47715;SDS011;33476;50.984;3.538;2022-08-19T11:35:54;3.85;;;1.40;;
47715;SDS011;33476;50.984;3.538;2022-08-19T11:38:22;1.88;;;1.17;;
47715;SDS011;33476;50.984;3.538;2022-08-19T11:40:54;4.05;;;1.20;;
47715;SDS011;33476;50.984;3.538;2022-08-19T11:43:20;1.65;;;1.20;;
47715;SDS011;33476;50.984;3.538;2022-08-19T11:45:46;2.40;;;0.98;;
47715;SDS011;33476;50.984;3.538;2022-08-19T11:48:13;5.78;;;1.10;;
47715;SDS011;33476;50.984;3.538;2022-08-19T11:50:39;3.15;;;1.40;;
47715;SDS011;33476;50.984;3.538;2022-08-19T11:53:07;3.35;;;1.33;;
47715;SDS011;33476;50.984;3.538;2022-08-19T11:55:32;1.90;;;1.08;;
47715;SDS011;33476;50.984;3.538;2022-08-19T11:58:01;1.92;;;1.05;;
47715;SDS011;33476;50.984;3.538;2022-08-19T12:00:26;1.65;;;0.98;;
47715;SDS011;33476;50.984;3.538;2022-08-19T12:02:52;2.70;;;1.10;;
47715;SDS011;33476;50.984;3.538;2022-08-19T12:05:17;2.40;;;1.13;;
47715;SDS011;33476;50.984;3.538;2022-08-19T12:07:42;2.15;;;1.27;;
47715;SDS011;33476;50.984;3.538;2022-08-19T12:10:08;1.60;;;1.17;;
47715;SDS011;33476;50.984;3.538;2022-08-19T12:12:34;2.63;;;1.23;;
47715;SDS011;33476;50.984;3.538;2022-08-19T12:14:59;3.53;;;1.33;;
47715;SDS011;33476;50.984;3.538;2022-08-19T12:17:25;2.17;;;1.15;;
47715;SDS011;33476;50.984;3.538;2022-08-19T12:19:51;3.83;;;1.60;;
47715;SDS011;33476;50.984;3.538;2022-08-19T12:22:17;4.88;;;1.70;;
47715;SDS011;33476;50.984;3.538;2022-08-19T12:24:43;3.47;;;1.10;;
47715;SDS011;33476;50.984;3.538;2022-08-19T12:27:08;2.50;;;1.20;;
47715;SDS011;33476;50.984;3.538;2022-08-19T12:29:34;3.70;;;1.33;;
47715;SDS011;33476;50.984;3.538;2022-08-19T12:31:59;4.32;;;0.80;;
47715;SDS011;33476;50.984;3.538;2022-08-19T12:34:28;5.65;;;1.08;;
47715;SDS011;33476;50.984;3.538;2022-08-19T12:36:56;2.38;;;1.08;;
47715;SDS011;33476;50.984;3.538;2022-08-19T12:39:26;4.75;;;0.90;;
47715;SDS011;33476;50.984;3.538;2022-08-19T12:41:52;0.68;;;0.55;;
47715;SDS011;33476;50.984;3.538;2022-08-19T12:44:18;1.77;;;0.55;;
47715;SDS011;33476;50.984;3.538;2022-08-19T12:46:44;2.03;;;0.40;;
47715;SDS011;33476;50.984;3.538;2022-08-19T12:49:09;4.63;;;0.47;;
47715;SDS011;33476;50.984;3.538;2022-08-19T12:51:35;4.10;;;0.60;;
47715;SDS011;33476;50.984;3.538;2022-08-19T12:54:00;21.75;;;1.75;;
47715;SDS011;33476;50.984;3.538;2022-08-19T12:56:26;23.92;;;2.72;;
47715;SDS011;33476;50.984;3.538;2022-08-19T12:58:52;19.67;;;2.00;;
47715;SDS011;33476;50.984;3.538;2022-08-19T13:01:17;5.65;;;0.93;;
47715;SDS011;33476;50.984;3.538;2022-08-19T13:03:45;6.38;;;0.77;;
47715;SDS011;33476;50.984;3.538;2022-08-19T13:06:11;4.22;;;0.90;;
47715;SDS011;33476;50.984;3.538;2022-08-19T13:08:37;13.45;;;0.75;;
47715;SDS011;33476;50.984;3.538;2022-08-19T13:11:11;1.80;;;0.40;;
47715;SDS011;33476;50.984;3.538;2022-08-19T13:13:40;1.50;;;0.38;;
47715;SDS011;33476;50.984;3.538;2022-08-19T13:16:07;1.33;;;0.32;;
47715;SDS011;33476;50.984;3.538;2022-08-19T13:18:36;1.30;;;0.25;;
47715;SDS011;33476;50.984;3.538;2022-08-19T13:21:05;1.85;;;0.40;;
47715;SDS011;33476;50.984;3.538;2022-08-19T13:23:34;2.83;;;0.32;;
47715;SDS011;33476;50.984;3.538;2022-08-19T13:26:01;2.55;;;0.50;;
47715;SDS011;33476;50.984;3.538;2022-08-19T13:28:30;2.40;;;0.30;;
47715;SDS011;33476;50.984;3.538;2022-08-19T13:31:19;2.38;;;0.45;;
47715;SDS011;33476;50.984;3.538;2022-08-19T13:34:05;1.40;;;0.30;;
47715;SDS011;33476;50.984;3.538;2022-08-19T13:36:35;1.02;;;0.20;;
47715;SDS011;33476;50.984;3.538;2022-08-19T13:39:01;1.05;;;0.17;;
47715;SDS011;33476;50.984;3.538;2022-08-19T13:41:27;2.83;;;0.35;;
47715;SDS011;33476;50.984;3.538;2022-08-19T13:43:52;1.40;;;0.40;;
47715;SDS011;33476;50.984;3.538;2022-08-19T13:46:19;3.45;;;0.45;;
47715;SDS011;33476;50.984;3.538;2022-08-19T13:48:45;4.88;;;0.60;;
47715;SDS011;33476;50.984;3.538;2022-08-19T13:51:12;4.78;;;0.80;;
47715;SDS011;33476;50.984;3.538;2022-08-19T13:53:37;6.22;;;0.70;;
47715;SDS011;33476;50.984;3.538;2022-08-19T13:56:08;2.53;;;0.73;;
47715;SDS011;33476;50.984;3.538;2022-08-19T13:58:35;2.97;;;0.50;;
47715;SDS011;33476;50.984;3.538;2022-08-19T14:01:00;2.60;;;0.60;;
47715;SDS011;33476;50.984;3.538;2022-08-19T14:03:26;3.50;;;0.68;;
47715;SDS011;33476;50.984;3.538;2022-08-19T14:05:52;3.10;;;0.95;;
47715;SDS011;33476;50.984;3.538;2022-08-19T14:08:18;3.20;;;0.70;;
47715;SDS011;33476;50.984;3.538;2022-08-19T14:10:44;5.40;;;1.00;;
47715;SDS011;33476;50.984;3.538;2022-08-19T14:13:12;4.65;;;1.20;;
47715;SDS011;33476;50.984;3.538;2022-08-19T14:15:39;4.63;;;1.17;;
47715;SDS011;33476;50.984;3.538;2022-08-19T14:18:04;3.80;;;1.25;;
47715;SDS011;33476;50.984;3.538;2022-08-19T14:20:30;4.57;;;1.38;;
47715;SDS011;33476;50.984;3.538;2022-08-19T14:22:55;4.43;;;1.13;;
47715;SDS011;33476;50.984;3.538;2022-08-19T14:25:22;3.33;;;1.02;;
47715;SDS011;33476;50.984;3.538;2022-08-19T14:27:50;5.13;;;1.43;;
47715;SDS011;33476;50.984;3.538;2022-08-19T14:30:17;3.35;;;0.82;;
47715;SDS011;33476;50.984;3.538;2022-08-19T14:32:47;5.95;;;1.50;;
47715;SDS011;33476;50.984;3.538;2022-08-19T14:35:13;5.22;;;1.40;;
47715;SDS011;33476;50.984;3.538;2022-08-19T14:37:40;3.75;;;1.42;;
47715;SDS011;33476;50.984;3.538;2022-08-19T14:40:08;12.35;;;1.75;;
47715;SDS011;33476;50.984;3.538;2022-08-19T14:42:33;5.25;;;1.38;;
47715;SDS011;33476;50.984;3.538;2022-08-19T14:44:59;5.25;;;1.40;;
47715;SDS011;33476;50.984;3.538;2022-08-19T14:47:26;5.53;;;1.50;;
47715;SDS011;33476;50.984;3.538;2022-08-19T14:49:52;4.05;;;0.98;;
47715;SDS011;33476;50.984;3.538;2022-08-19T14:52:18;5.05;;;1.20;;
47715;SDS011;33476;50.984;3.538;2022-08-19T14:54:43;4.45;;;0.95;;
47715;SDS011;33476;50.984;3.538;2022-08-19T14:57:11;5.10;;;1.02;;
47715;SDS011;33476;50.984;3.538;2022-08-19T14:59:37;2.42;;;0.52;;
47715;SDS011;33476;50.984;3.538;2022-08-19T15:02:03;3.53;;;1.00;;
47715;SDS011;33476;50.984;3.538;2022-08-19T15:04:28;3.58;;;1.13;;
47715;SDS011;33476;50.984;3.538;2022-08-19T15:06:54;3.65;;;0.80;;
47715;SDS011;33476;50.984;3.538;2022-08-19T15:09:19;3.30;;;0.70;;
47715;SDS011;33476;50.984;3.538;2022-08-19T15:11:44;2.85;;;0.70;;
47715;SDS011;33476;50.984;3.538;2022-08-19T15:14:10;3.63;;;0.88;;
47715;SDS011;33476;50.984;3.538;2022-08-19T15:16:35;3.85;;;0.63;;